Time;durP1;ratioP1;P1;durP2;ratioP2;P2;SDS_P1;SDS_P2;PMS_P1;PMS_P2;Temp;Humidity;BMP_temperature;BMP_pressure;BME280_temperature;BME280_humidity;BME280_pressure;Samples;Min_cycle;Max_cycle;Signal;HPM_P1;HPM_P2
2022/02/13 00:00:17;;;;;;;5.95;2.78;;;;;;;-0.69;100.00;101772.56;4957522;28;20038;-74
2022/02/13 00:02:44;;;;;;;9.82;2.78;;;;;;;-0.60;100.00;101770.53;4958306;28;20044;-75
2022/02/13 00:05:10;;;;;;;8.57;2.65;;;;;;;-0.66;100.00;101781.06;4979665;28;20132;-75
2022/02/13 00:07:36;;;;;;;8.80;2.50;;;;;;;-0.75;100.00;101772.75;4978343;28;20444;-75
2022/02/13 00:10:04;;;;;;;11.60;3.03;;;;;;;-0.60;100.00;101770.53;4979807;28;20068;-75
2022/02/13 00:12:30;;;;;;;7.90;3.03;;;;;;;-0.66;100.00;101762.16;4983602;28;20062;-75
2022/02/13 00:14:55;;;;;;;8.68;2.90;;;;;;;-0.69;100.00;101754.53;4969531;28;20041;-75
2022/02/13 00:17:22;;;;;;;7.90;2.80;;;;;;;-0.59;100.00;101754.16;4986302;28;20073;-74
2022/02/13 00:19:48;;;;;;;6.15;2.53;;;;;;;-0.55;100.00;101743.78;4950902;28;20046;-75
2022/02/13 00:22:15;;;;;;;3.72;2.25;;;;;;;-0.51;100.00;101735.91;4987473;28;20049;-75
2022/02/13 00:24:41;;;;;;;9.48;2.55;;;;;;;-0.51;100.00;101735.03;4955459;28;20034;-75
2022/02/13 00:27:07;;;;;;;8.82;2.60;;;;;;;-0.51;100.00;101735.03;4986828;28;20252;-74
2022/02/13 00:29:32;;;;;;;7.95;2.50;;;;;;;-0.38;100.00;101738.06;4986926;28;20030;-75
2022/02/13 00:31:58;;;;;;;9.73;2.60;;;;;;;-0.35;100.00;101740.53;4993028;28;20400;-75
2022/02/13 00:34:24;;;;;;;8.00;2.47;;;;;;;-0.36;100.00;101747.41;4969207;28;20056;-75
2022/02/13 00:36:49;;;;;;;6.60;2.65;;;;;;;-0.36;100.00;101750.00;4971901;28;20042;-76
2022/02/13 00:39:15;;;;;;;7.50;2.40;;;;;;;-0.43;100.00;101749.38;4969935;28;20038;-77
2022/02/13 00:41:40;;;;;;;9.20;2.80;;;;;;;-0.33;100.00;101755.06;4975769;28;20039;-75
2022/02/13 00:44:06;;;;;;;8.07;2.30;;;;;;;-0.38;100.00;101745.78;4974652;28;20097;-75
2022/02/13 00:46:32;;;;;;;9.68;2.92;;;;;;;-0.40;100.00;101743.25;4978387;28;20031;-75
2022/02/13 00:48:59;;;;;;;8.73;2.78;;;;;;;-0.33;100.00;101733.59;4993501;28;20085;-76
2022/02/13 00:51:25;;;;;;;11.13;2.72;;;;;;;-0.40;100.00;101730.38;4993544;28;20527;-75
2022/02/13 00:53:51;;;;;;;9.40;3.17;;;;;;;-0.43;100.00;101728.75;4990944;28;20104;-75
2022/02/13 00:56:17;;;;;;;7.28;2.63;;;;;;;-0.40;100.00;101723.50;4988600;28;20030;-75
2022/02/13 00:58:44;;;;;;;6.05;2.60;;;;;;;-0.40;100.00;101720.06;4966059;28;20088;-74
2022/02/13 01:01:10;;;;;;;9.15;3.05;;;;;;;-0.44;100.00;101724.47;4955251;28;20114;-75
2022/02/13 01:03:36;;;;;;;9.77;2.75;;;;;;;-0.56;100.00;101717.16;4990625;28;20038;-75
2022/02/13 01:06:02;;;;;;;8.05;3.20;;;;;;;-0.59;100.00;101712.09;4990960;28;20034;-74
2022/02/13 01:08:28;;;;;;;5.68;2.72;;;;;;;-0.76;100.00;101704.94;4981762;28;20031;-75
2022/02/13 01:10:54;;;;;;;5.55;3.03;;;;;;;-0.80;100.00;101711.91;4969656;28;20027;-75
2022/02/13 01:13:20;;;;;;;8.63;2.88;;;;;;;-0.72;100.00;101700.53;4983600;28;20030;-75
2022/02/13 01:15:46;;;;;;;8.57;3.28;;;;;;;-0.81;100.00;101691.34;4984959;28;20038;-75
2022/02/13 01:18:13;;;;;;;6.15;2.88;;;;;;;-0.61;100.00;101694.09;4978003;28;20034;-75
2022/02/13 01:20:39;;;;;;;6.05;2.67;;;;;;;-0.54;100.00;101693.94;4990537;28;20031;-75
2022/02/13 01:23:04;;;;;;;7.80;3.30;;;;;;;-0.51;100.00;101699.81;4971512;28;20049;-78
2022/02/13 01:25:31;;;;;;;7.20;3.10;;;;;;;-0.59;100.00;101694.91;4991617;28;20046;-76
2022/02/13 01:27:56;;;;;;;8.98;3.22;;;;;;;-0.69;100.00;101690.13;4979151;28;20528;-75
2022/02/13 01:30:22;;;;;;;8.43;3.00;;;;;;;-0.56;100.00;101690.56;4977284;28;20124;-75
2022/02/13 01:32:48;;;;;;;8.02;3.20;;;;;;;-0.66;100.00;101695.16;4963866;28;20042;-75
2022/02/13 01:35:14;;;;;;;9.40;3.22;;;;;;;-0.65;100.00;101684.81;4992035;28;20034;-75
2022/02/13 01:37:39;;;;;;;9.95;2.70;;;;;;;-0.57;100.00;101688.88;4972353;28;20038;-74
2022/02/13 01:40:06;;;;;;;9.27;3.55;;;;;;;-0.61;100.00;101686.38;4977078;28;20054;-75
2022/02/13 01:42:32;;;;;;;7.13;2.97;;;;;;;-0.74;100.00;101677.38;4988415;28;20493;-75
2022/02/13 01:44:58;;;;;;;8.75;3.00;;;;;;;-0.83;100.00;101659.66;4991643;28;20034;-75
2022/02/13 01:47:24;;;;;;;8.23;3.33;;;;;;;-0.84;100.00;101665.72;4965331;28;20041;-75
2022/02/13 01:49:50;;;;;;;8.45;3.40;;;;;;;-0.86;100.00;101660.59;4987178;28;20042;-75
2022/02/13 01:52:16;;;;;;;7.10;3.22;;;;;;;-0.83;100.00;101663.09;4983871;28;20109;-75
2022/02/13 01:54:42;;;;;;;8.48;3.58;;;;;;;-0.83;100.00;101657.94;4975975;28;20080;-76
2022/02/13 01:57:10;;;;;;;8.98;3.60;;;;;;;-0.83;100.00;101652.78;4976696;28;20034;-75
2022/02/13 01:59:39;;;;;;;8.00;3.15;;;;;;;-0.87;100.00;101655.50;4970369;28;20190;-75
2022/02/13 02:02:04;;;;;;;7.10;3.08;;;;;;;-0.76;100.00;101645.66;4957218;28;20525;-75
2022/02/13 02:04:30;;;;;;;7.28;2.83;;;;;;;-0.68;100.00;101655.72;4956462;28;20046;-75
2022/02/13 02:06:56;;;;;;;7.70;3.00;;;;;;;-0.71;100.00;101654.09;4975410;28;20050;-75
2022/02/13 02:09:25;;;;;;;13.10;3.40;;;;;;;-0.64;100.00;101659.88;4964562;28;21012;-74
2022/02/13 02:11:51;;;;;;;6.25;3.22;;;;;;;-0.71;100.00;101666.97;4981135;28;20063;-75
2022/02/13 02:14:17;;;;;;;11.50;3.83;;;;;;;-0.71;100.00;101663.56;4980568;28;20034;-75
2022/02/13 02:16:43;;;;;;;6.97;3.50;;;;;;;-0.85;100.00;101648.56;4985520;28;20035;-75
2022/02/13 02:19:10;;;;;;;6.13;3.13;;;;;;;-1.01;100.00;101633.59;4982210;28;20069;-75
2022/02/13 02:21:43;;;;;;;6.47;3.33;;;;;;;-0.95;100.00;101639.47;4969614;28;20126;-75
2022/02/13 02:24:16;;;;;;;9.55;3.35;;;;;;;-1.05;100.00;101634.59;4972829;28;20035;-75
2022/02/13 02:26:43;;;;;;;13.82;3.70;;;;;;;-1.03;100.00;101626.84;4973914;28;20485;-75
2022/02/13 02:29:09;;;;;;;11.07;3.70;;;;;;;-0.93;100.00;101627.38;4972936;28;20034;-75
2022/02/13 02:31:35;;;;;;;11.65;3.83;;;;;;;-0.99;100.00;101634.41;4976213;28;20060;-76
2022/02/13 02:34:01;;;;;;;9.77;3.30;;;;;;;-0.98;100.00;101625.78;4973083;28;20550;-75
2022/02/13 02:36:27;;;;;;;6.63;3.30;;;;;;;-0.96;100.00;101615.44;4989647;28;20034;-76
2022/02/13 02:38:52;;;;;;;6.88;3.35;;;;;;;-1.02;100.00;101620.78;4971702;28;20034;-75
2022/02/13 02:41:19;;;;;;;8.70;3.80;;;;;;;-1.04;100.00;101615.66;4984137;28;20072;-75
2022/02/13 02:43:46;;;;;;;13.00;4.07;;;;;;;-1.09;100.00;101612.44;4973518;28;20073;-75
2022/02/13 02:46:13;;;;;;;8.88;3.38;;;;;;;-1.04;100.00;101591.66;4970958;28;20093;-75
2022/02/13 02:48:39;;;;;;;7.00;3.15;;;;;;;-1.04;100.00;101589.91;4975435;28;20030;-77
2022/02/13 02:51:05;;;;;;;6.85;3.65;;;;;;;-1.00;100.00;101591.53;4969900;28;20052;-75
2022/02/13 02:53:33;;;;;;;5.80;3.47;;;;;;;-0.87;100.00;101588.53;4987982;28;20137;-76
2022/02/13 02:55:58;;;;;;;9.85;4.38;;;;;;;-0.96;100.00;101571.66;4983681;28;20034;-75
2022/02/13 02:58:24;;;;;;;8.70;3.63;;;;;;;-0.84;100.00;101581.53;4969157;28;20121;-75
2022/02/13 03:00:50;;;;;;;8.48;3.95;;;;;;;-0.85;100.00;101574.72;4980354;28;20037;-75
2022/02/13 03:03:20;;;;;;;11.30;3.55;;;;;;;-0.89;100.00;101575.69;4976207;28;20481;-75
2022/02/13 03:05:48;;;;;;;10.48;4.20;;;;;;;-1.05;100.00;101564.25;4977090;28;20054;-75
2022/02/13 03:08:18;;;;;;;7.63;3.65;;;;;;;-1.05;100.00;101566.81;4980297;28;20026;-75
2022/02/13 03:10:44;;;;;;;10.88;3.63;;;;;;;-1.13;100.00;101549.06;4988222;28;20040;-75
2022/02/13 03:13:12;;;;;;;7.25;3.88;;;;;;;-1.05;100.00;101549.63;4985178;28;20026;-75
2022/02/13 03:15:38;;;;;;;6.38;3.53;;;;;;;-1.04;100.00;101545.31;4984848;28;20042;-76
2022/02/13 03:18:03;;;;;;;6.50;4.00;;;;;;;-1.10;100.00;101528.34;4971099;28;20101;-75
2022/02/13 03:20:29;;;;;;;8.90;4.10;;;;;;;-1.07;100.00;101525.66;4979133;28;20180;-74
2022/02/13 03:22:54;;;;;;;6.70;3.80;;;;;;;-1.02;100.00;101521.22;4982278;28;20098;-74
2022/02/13 03:25:20;;;;;;;8.52;4.07;;;;;;;-1.08;100.00;101528.28;4985901;28;20107;-75
2022/02/13 03:27:46;;;;;;;9.35;4.00;;;;;;;-1.07;100.00;101520.53;4971801;28;20452;-76
2022/02/13 03:30:12;;;;;;;9.68;4.05;;;;;;;-1.15;100.00;101517.34;4970924;28;20406;-74
2022/02/13 03:32:37;;;;;;;8.60;3.55;;;;;;;-1.21;100.00;101512.41;4976654;28;20100;-74
2022/02/13 03:35:04;;;;;;;11.27;3.50;;;;;;;-1.20;100.00;101501.22;4988084;28;20034;-77
2022/02/13 03:37:29;;;;;;;11.82;4.50;;;;;;;-1.14;100.00;101501.03;4983326;28;20042;-75
2022/02/13 03:39:55;;;;;;;7.35;4.10;;;;;;;-1.12;100.00;101491.50;4981062;28;20109;-75
2022/02/13 03:42:20;;;;;;;10.82;4.25;;;;;;;-1.05;100.00;101495.56;4954289;28;20178;-77
2022/02/13 03:44:48;;;;;;;8.75;3.80;;;;;;;-1.01;100.00;101494.53;4980195;28;20039;-75
2022/02/13 03:47:14;;;;;;;11.43;4.20;;;;;;;-1.00;100.00;101485.06;4975188;28;20459;-75
2022/02/13 03:49:39;;;;;;;12.98;4.43;;;;;;;-1.01;100.00;101486.81;4970409;28;20069;-75
2022/02/13 03:52:05;;;;;;;7.82;3.47;;;;;;;-1.07;100.00;101479.31;4981300;28;20618;-75
2022/02/13 03:54:31;;;;;;;12.50;4.20;;;;;;;-1.09;100.00;101485.41;4985809;28;20034;-75
2022/02/13 03:56:56;;;;;;;13.00;3.92;;;;;;;-1.10;100.00;101483.72;4966498;28;20042;-75
2022/02/13 03:59:22;;;;;;;9.27;4.43;;;;;;;-1.22;100.00;101485.84;4986306;28;20527;-75
2022/02/13 04:01:48;;;;;;;9.82;4.00;;;;;;;-1.26;100.00;101483.41;4970881;28;20030;-76
2022/02/13 04:04:13;;;;;;;13.30;4.13;;;;;;;-1.23;100.00;101483.31;4986924;28;20441;-76
2022/02/13 04:06:39;;;;;;;9.07;3.97;;;;;;;-1.22;100.00;101478.13;4984276;28;20038;-76
2022/02/13 04:09:04;;;;;;;7.97;4.57;;;;;;;-1.18;100.00;101471.13;4982583;28;20194;-75
2022/02/13 04:11:30;;;;;;;10.32;4.57;;;;;;;-1.22;100.00;101479.84;4976182;28;20124;-75
2022/02/13 04:13:56;;;;;;;10.27;4.22;;;;;;;-1.18;100.00;101473.69;4991547;28;20062;-76
2022/02/13 04:16:21;;;;;;;10.57;4.15;;;;;;;-1.00;100.00;101480.78;4973375;28;20035;-75
2022/02/13 04:18:49;;;;;;;10.02;4.03;;;;;;;-1.11;100.00;101474.31;4984389;28;20045;-75
2022/02/13 04:21:15;;;;;;;9.18;4.18;;;;;;;-0.93;100.00;101489.13;4986615;28;20026;-75
2022/02/13 04:23:41;;;;;;;14.65;3.92;;;;;;;-1.12;100.00;101485.53;4992044;28;20034;-75
2022/02/13 04:26:07;;;;;;;9.52;4.70;;;;;;;-1.12;100.00;101476.06;4975146;28;20034;-75
2022/02/13 04:28:33;;;;;;;8.45;4.32;;;;;;;-0.95;100.00;101480.63;4962450;28;20042;-75
2022/02/13 04:30:59;;;;;;;10.45;3.97;;;;;;;-0.85;100.00;101483.69;4981804;28;20027;-75
2022/02/13 04:33:25;;;;;;;6.38;3.67;;;;;;;-0.81;100.00;101488.69;4972351;28;20037;-75
2022/02/13 04:35:51;;;;;;;12.68;4.50;;;;;;;-0.76;100.00;101477.38;4967490;28;20038;-75
2022/02/13 04:38:17;;;;;;;9.13;4.00;;;;;;;-0.90;100.00;101475.31;4982957;28;20033;-74
2022/02/13 04:40:43;;;;;;;10.15;4.10;;;;;;;-0.87;100.00;101463.13;4959072;28;20129;-75
2022/02/13 04:43:08;;;;;;;8.55;3.90;;;;;;;-0.84;100.00;101468.19;4972347;28;20565;-76
2022/02/13 04:45:34;;;;;;;11.73;4.70;;;;;;;-0.80;100.00;101468.91;4958537;28;20057;-75
2022/02/13 04:48:00;;;;;;;9.50;4.30;;;;;;;-0.78;100.00;101464.56;4978341;28;20040;-75
2022/02/13 04:50:26;;;;;;;12.50;4.45;;;;;;;-0.76;100.00;101464.50;4961903;28;20108;-76
2022/02/13 04:52:54;;;;;;;8.07;3.67;;;;;;;-0.79;100.00;101450.84;4988211;28;20149;-75
2022/02/13 04:55:21;;;;;;;11.48;5.28;;;;;;;-0.71;100.00;101460.03;4963529;28;20073;-76
2022/02/13 04:57:47;;;;;;;10.15;3.95;;;;;;;-0.72;100.00;101455.75;4975611;28;20031;-75
2022/02/13 05:00:15;;;;;;;8.70;4.18;;;;;;;-0.83;100.00;101440.69;4959983;28;20631;-75
2022/02/13 05:02:41;;;;;;;9.30;3.92;;;;;;;-0.81;100.00;101441.47;4969449;28;20102;-75
2022/02/13 05:05:08;;;;;;;9.45;4.40;;;;;;;-0.82;100.00;101437.22;4972741;28;20133;-75
2022/02/13 05:07:34;;;;;;;9.80;4.00;;;;;;;-0.77;100.00;101432.75;4970573;28;20042;-76
2022/02/13 05:10:01;;;;;;;10.02;4.45;;;;;;;-0.75;100.00;101436.13;4989683;28;20109;-75
2022/02/13 05:12:27;;;;;;;12.90;4.55;;;;;;;-0.75;100.00;101437.81;4985915;28;20030;-75
2022/02/13 05:14:52;;;;;;;13.90;4.22;;;;;;;-0.71;100.00;101444.56;4984792;28;20035;-75
2022/02/13 05:17:19;;;;;;;7.97;3.97;;;;;;;-0.71;100.00;101435.09;4983487;28;20038;-75
2022/02/13 05:19:44;;;;;;;8.88;4.03;;;;;;;-0.69;100.00;101432.47;4983600;28;20804;-75
2022/02/13 05:22:10;;;;;;;8.90;4.18;;;;;;;-0.70;100.00;101423.88;4990088;28;20042;-75
2022/02/13 05:24:36;;;;;;;9.32;3.72;;;;;;;-0.72;100.00;101412.78;4977961;28;20042;-76
2022/02/13 05:27:04;;;;;;;7.22;3.92;;;;;;;-0.74;100.00;101413.75;4993971;28;20395;-75
2022/02/13 05:29:30;;;;;;;9.10;4.28;;;;;;;-0.74;100.00;101414.59;4966167;28;20070;-75
2022/02/13 05:31:56;;;;;;;9.18;4.25;;;;;;;-0.72;100.00;101414.53;4986043;28;20042;-75
2022/02/13 05:34:22;;;;;;;10.07;4.30;;;;;;;-0.70;100.00;101415.31;4966209;28;20034;-75
2022/02/13 05:36:47;;;;;;;9.65;4.30;;;;;;;-0.76;100.00;101418.13;4980819;28;20043;-76
2022/02/13 05:39:13;;;;;;;8.80;4.18;;;;;;;-0.76;100.00;101410.41;4972118;28;20041;-75
2022/02/13 05:41:39;;;;;;;8.77;4.35;;;;;;;-0.81;100.00;101393.38;4992268;28;20038;-75
2022/02/13 05:44:05;;;;;;;12.13;3.95;;;;;;;-0.83;100.00;101402.06;4994888;28;20042;-75
2022/02/13 05:46:30;;;;;;;8.63;4.70;;;;;;;-0.90;100.00;101406.59;4981524;28;20042;-75
2022/02/13 05:48:57;;;;;;;10.18;4.60;;;;;;;-0.87;100.00;101409.03;4987904;28;20485;-75
2022/02/13 05:51:25;;;;;;;12.43;4.40;;;;;;;-0.87;100.00;101410.78;4983205;28;20038;-75
2022/02/13 05:53:51;;;;;;;11.43;4.20;;;;;;;-0.88;100.00;101409.13;4974810;28;20057;-76
2022/02/13 05:56:17;;;;;;;12.35;4.63;;;;;;;-0.89;100.00;101410.00;4990728;28;20485;-75
2022/02/13 05:58:43;;;;;;;7.60;4.07;;;;;;;-0.90;100.00;101395.47;4980328;28;20038;-76
2022/02/13 06:01:09;;;;;;;10.13;4.68;;;;;;;-0.91;100.00;101414.38;4974128;28;20073;-75
2022/02/13 06:03:35;;;;;;;9.65;4.43;;;;;;;-0.87;100.00;101411.63;4974895;28;20046;-75
2022/02/13 06:06:02;;;;;;;8.68;4.30;;;;;;;-0.92;100.00;101402.38;4974314;28;20080;-75
2022/02/13 06:08:28;;;;;;;8.10;4.40;;;;;;;-0.93;100.00;101387.84;4975462;28;20133;-75
2022/02/13 06:10:54;;;;;;;12.40;5.20;;;;;;;-0.99;100.00;101378.63;4982146;28;20041;-75
2022/02/13 06:13:19;;;;;;;11.25;4.43;;;;;;;-0.94;100.00;101383.59;4973369;28;20034;-75
2022/02/13 06:15:45;;;;;;;10.90;5.00;;;;;;;-0.88;100.00;101381.63;4996171;28;20714;-75
2022/02/13 06:18:10;;;;;;;9.90;4.63;;;;;;;-0.86;100.00;101384.16;4972997;28;20049;-75
2022/02/13 06:20:36;;;;;;;13.50;4.32;;;;;;;-0.86;100.00;101386.72;4962742;28;20038;-76
2022/02/13 06:23:02;;;;;;;10.60;4.30;;;;;;;-0.88;100.00;101389.34;4976872;28;20049;-75
2022/02/13 06:25:28;;;;;;;12.25;4.25;;;;;;;-0.88;100.00;101381.63;4965407;28;20046;-75
2022/02/13 06:27:53;;;;;;;10.88;4.38;;;;;;;-0.88;100.00;101378.22;4972809;28;20034;-74
2022/02/13 06:30:19;;;;;;;11.27;4.22;;;;;;;-0.84;100.00;101380.63;4966623;28;20522;-75
2022/02/13 06:32:45;;;;;;;10.48;4.60;;;;;;;-0.83;100.00;101382.31;4991915;28;20034;-75
2022/02/13 06:35:11;;;;;;;12.57;4.70;;;;;;;-0.88;100.00;101376.47;4956570;28;20045;-76
2022/02/13 06:37:37;;;;;;;10.20;4.50;;;;;;;-0.82;100.00;101388.28;4993153;28;20119;-75
2022/02/13 06:40:04;;;;;;;9.63;4.55;;;;;;;-0.85;100.00;101384.09;4976159;28;20064;-76
2022/02/13 06:42:29;;;;;;;11.10;3.85;;;;;;;-0.86;100.00;101387.56;4979239;28;20034;-75
2022/02/13 06:44:55;;;;;;;10.77;4.30;;;;;;;-0.79;100.00;101393.34;4981927;28;20034;-75
2022/02/13 06:47:20;;;;;;;13.90;4.00;;;;;;;-0.97;100.00;101384.53;4974902;28;20041;-74
2022/02/13 06:49:46;;;;;;;9.65;4.22;;;;;;;-0.88;100.00;101388.53;4977374;28;20112;-75
2022/02/13 06:52:11;;;;;;;9.70;4.45;;;;;;;-0.90;100.00;101380.03;4983770;28;20065;-75
2022/02/13 06:54:37;;;;;;;6.90;4.18;;;;;;;-0.87;100.00;101374.72;4982346;28;20069;-75
2022/02/13 06:57:03;;;;;;;9.70;4.47;;;;;;;-0.86;100.00;101384.16;4991538;28;20058;-75
2022/02/13 06:59:28;;;;;;;12.30;4.30;;;;;;;-0.92;100.00;101390.38;4978303;28;20117;-75
2022/02/13 07:01:54;;;;;;;9.88;3.85;;;;;;;-1.00;100.00;101382.94;4984157;28;20042;-75
2022/02/13 07:04:19;;;;;;;12.85;4.18;;;;;;;-1.05;100.00;101371.13;4960783;28;20109;-75
2022/02/13 07:06:45;;;;;;;10.95;4.22;;;;;;;-1.01;100.00;101372.69;4963294;28;20038;-75
2022/02/13 07:09:11;;;;;;;10.82;4.68;;;;;;;-1.04;100.00;101388.22;4985715;28;20112;-75
2022/02/13 07:11:36;;;;;;;13.38;4.53;;;;;;;-0.95;100.00;101374.19;4982135;28;20523;-75
2022/02/13 07:14:02;;;;;;;10.45;3.72;;;;;;;-0.99;100.00;101376.03;4975511;28;20064;-75
2022/02/13 07:16:29;;;;;;;8.35;4.18;;;;;;;-0.96;100.00;101375.06;4975337;28;20056;-75
2022/02/13 07:18:58;;;;;;;11.48;4.47;;;;;;;-0.86;100.00;101381.56;4991200;28;20042;-74
2022/02/13 07:21:24;;;;;;;11.27;4.30;;;;;;;-0.74;100.00;101393.16;4984786;28;20034;-75
2022/02/13 07:23:50;;;;;;;9.45;4.43;;;;;;;-0.74;100.00;101375.13;4980546;28;20037;-76
2022/02/13 07:26:15;;;;;;;9.73;4.78;;;;;;;-0.72;100.00;101376.72;4983723;28;20041;-76
2022/02/13 07:28:59;;;;;;;8.48;3.70;;;;;;;-0.64;100.00;101373.84;4973364;28;20027;-75
2022/02/13 07:31:29;;;;;;;10.30;4.13;;;;;;;-0.59;100.00;101372.78;4987200;28;20034;-76
2022/02/13 07:33:55;;;;;;;11.63;4.43;;;;;;;-0.62;100.00;101374.66;4985076;28;20041;-75
2022/02/13 07:36:22;;;;;;;9.73;4.10;;;;;;;-0.60;100.00;101375.44;4989840;28;20043;-76
2022/02/13 07:38:47;;;;;;;7.22;3.90;;;;;;;-0.62;100.00;101370.34;4993375;28;20034;-76
2022/02/13 07:41:13;;;;;;;7.13;3.47;;;;;;;-0.56;100.00;101358.97;4972277;28;20471;-76
2022/02/13 07:43:38;;;;;;;7.95;4.03;;;;;;;-0.41;98.97;101360.09;4973698;28;20030;-76
2022/02/13 07:46:04;;;;;;;9.20;4.20;;;;;;;-0.45;99.51;101354.22;4966538;28;20138;-75
2022/02/13 07:48:30;;;;;;;9.13;3.63;;;;;;;-0.51;99.46;101344.16;4967085;28;20085;-76
2022/02/13 07:50:56;;;;;;;10.05;3.42;;;;;;;-0.37;98.54;101348.75;4975696;28;20042;-75
2022/02/13 07:53:22;;;;;;;12.55;4.00;;;;;;;-0.31;98.17;101348.50;4988705;28;20060;-76
2022/02/13 07:55:47;;;;;;;9.23;3.95;;;;;;;-0.32;98.10;101339.09;4969712;28;20034;-75
2022/02/13 07:58:13;;;;;;;9.40;3.63;;;;;;;-0.26;97.89;101346.59;4982911;28;20429;-76
2022/02/13 08:00:39;;;;;;;6.38;3.90;;;;;;;-0.29;97.94;101349.28;4983567;28;20109;-75
2022/02/13 08:03:05;;;;;;;10.45;3.75;;;;;;;-0.30;97.86;101345.03;4986792;28;20116;-75
2022/02/13 08:05:30;;;;;;;10.48;3.83;;;;;;;-0.20;97.09;101348.91;4973550;28;20390;-75
2022/02/13 08:07:56;;;;;;;7.93;3.97;;;;;;;-0.11;96.26;101352.03;4995850;28;20022;-75
2022/02/13 08:10:22;;;;;;;7.53;3.67;;;;;;;-0.10;96.30;101358.84;4981274;28;20496;-75
2022/02/13 08:12:47;;;;;;;7.95;4.22;;;;;;;0.01;95.42;101356.66;4978776;28;20074;-75
2022/02/13 08:15:13;;;;;;;7.07;3.85;;;;;;;0.02;95.88;101352.34;4967158;28;20455;-75
2022/02/13 08:17:39;;;;;;;12.05;4.20;;;;;;;-0.02;96.45;101349.91;4981579;28;20069;-76
2022/02/13 08:20:07;;;;;;;9.45;3.88;;;;;;;0.11;95.41;101350.22;4997247;28;20031;-77
2022/02/13 08:22:34;;;;;;;8.02;3.47;;;;;;;0.18;94.74;101351.63;4974453;28;20493;-75
2022/02/13 08:25:00;;;;;;;11.43;3.85;;;;;;;0.29;94.28;101348.59;4993261;28;20046;-75
2022/02/13 08:27:26;;;;;;;9.02;3.45;;;;;;;0.36;93.80;101342.28;4972500;28;20405;-75
2022/02/13 08:29:51;;;;;;;8.13;3.60;;;;;;;0.41;93.34;101341.25;4952926;28;20042;-75
2022/02/13 08:32:17;;;;;;;7.60;3.97;;;;;;;0.41;93.20;101328.34;4970800;28;20037;-75
2022/02/13 08:34:43;;;;;;;8.15;3.70;;;;;;;0.48;93.32;101333.16;4979655;28;20253;-75
2022/02/13 08:37:09;;;;;;;8.38;4.22;;;;;;;0.62;92.08;101329.97;4982824;28;20061;-75
2022/02/13 08:39:34;;;;;;;8.13;3.55;;;;;;;0.74;90.76;101324.25;4991251;28;20493;-75
2022/02/13 08:42:00;;;;;;;8.88;3.97;;;;;;;0.86;90.99;101328.03;4983876;28;20070;-75
2022/02/13 08:44:26;;;;;;;11.25;4.25;;;;;;;1.13;89.61;101320.78;4983694;28;20039;-74
2022/02/13 08:46:51;;;;;;;8.65;3.78;;;;;;;1.26;88.50;101315.88;4968147;28;20042;-76
2022/02/13 08:49:17;;;;;;;5.80;3.90;;;;;;;1.36;87.02;101308.53;4955766;28;20785;-75
2022/02/13 08:51:44;;;;;;;8.77;3.60;;;;;;;1.50;85.74;101307.84;4979654;28;20113;-76
2022/02/13 08:54:09;;;;;;;12.32;4.47;;;;;;;1.61;85.18;101292.63;4984089;28;20065;-75
2022/02/13 08:56:35;;;;;;;11.38;3.80;;;;;;;1.68;84.96;101286.25;4973783;28;20124;-75
2022/02/13 08:59:01;;;;;;;9.82;3.40;;;;;;;1.79;85.42;101272.81;4994001;28;20070;-74
2022/02/13 09:01:27;;;;;;;10.30;4.18;;;;;;;1.94;84.92;101276.34;4983999;28;20118;-76
2022/02/13 09:03:52;;;;;;;11.18;3.70;;;;;;;2.00;84.47;101270.03;4989645;28;20026;-75
2022/02/13 09:06:18;;;;;;;9.90;4.30;;;;;;;2.03;82.62;101272.47;4984903;28;20046;-75
2022/02/13 09:08:45;;;;;;;9.30;3.95;;;;;;;2.04;81.77;101267.22;4985626;28;20098;-76
2022/02/13 09:11:10;;;;;;;7.95;2.92;;;;;;;2.04;81.55;101264.63;4972288;28;20347;-75
2022/02/13 09:13:36;;;;;;;9.05;3.83;;;;;;;2.14;80.88;101264.97;4965446;28;20497;-76
2022/02/13 09:16:02;;;;;;;7.75;3.28;;;;;;;2.24;80.34;101262.75;4958107;28;20039;-75
2022/02/13 09:18:27;;;;;;;10.15;3.67;;;;;;;2.32;79.93;101252.84;4985418;28;20521;-75
2022/02/13 09:20:53;;;;;;;4.40;3.10;;;;;;;2.36;79.39;101246.59;4985012;28;20030;-75
2022/02/13 09:23:21;;;;;;;11.75;3.35;;;;;;;2.42;78.42;101254.03;4985389;28;20105;-76
2022/02/13 09:25:48;;;;;;;4.07;3.00;;;;;;;2.44;77.89;101259.13;4974492;28;20035;-75
2022/02/13 09:28:15;;;;;;;5.50;3.17;;;;;;;2.49;77.23;101254.53;4989036;28;20022;-75
2022/02/13 09:30:41;;;;;;;8.43;3.17;;;;;;;2.48;77.81;101234.72;4992185;28;20034;-75
2022/02/13 09:33:07;;;;;;;8.48;3.22;;;;;;;2.55;76.40;101235.25;4996845;28;20128;-75
2022/02/13 09:35:33;;;;;;;8.55;3.10;;;;;;;2.63;77.21;101230.47;4987196;28;20108;-75
2022/02/13 09:37:59;;;;;;;8.80;3.05;;;;;;;2.75;76.48;101219.47;4986913;28;20070;-75
2022/02/13 09:40:25;;;;;;;8.30;2.80;;;;;;;2.98;75.50;101233.72;4962367;28;20614;-76
2022/02/13 09:42:52;;;;;;;8.00;3.33;;;;;;;3.03;74.85;101238.66;4973945;28;20050;-76
2022/02/13 09:45:19;;;;;;;5.50;2.72;;;;;;;3.07;74.97;101235.81;4985149;28;20481;-75
2022/02/13 09:47:45;;;;;;;6.78;3.30;;;;;;;3.14;73.61;101228.50;4958250;28;20041;-76
2022/02/13 09:50:11;;;;;;;6.50;3.30;;;;;;;3.23;72.98;101232.34;4988156;28;20041;-75
2022/02/13 09:52:37;;;;;;;7.95;3.25;;;;;;;3.23;73.34;101222.81;4970938;28;20034;-77
2022/02/13 09:55:03;;;;;;;5.00;2.95;;;;;;;3.29;73.95;101226.81;5000902;28;20038;-76
2022/02/13 10:00:13;;;;;;;6.10;3.30;;;;;;;3.48;72.73;101230.03;4978254;28;20117;-75
2022/02/13 10:02:41;;;;;;;6.70;3.20;;;;;;;3.55;73.56;101240.06;4984591;28;20047;-76
2022/02/13 10:05:09;;;;;;;10.00;2.95;;;;;;;3.61;72.49;101242.28;4981796;28;20040;-76
2022/02/13 10:07:36;;;;;;;7.25;3.40;;;;;;;3.66;72.32;101246.28;4991784;28;20046;-75
2022/02/13 10:10:06;;;;;;;6.45;3.13;;;;;;;3.68;72.95;101239.25;4975589;28;20485;-75
2022/02/13 10:12:43;;;;;;;7.90;3.22;;;;;;;3.62;71.55;101237.00;4995335;28;20551;-75
2022/02/13 10:15:25;;;;;;;6.68;3.33;;;;;;;3.68;72.46;101230.63;4974400;28;20607;-75
2022/02/13 10:18:06;;;;;;;8.48;3.22;;;;;;;3.79;71.10;101230.00;4990278;28;20109;-75
2022/02/13 10:20:34;;;;;;;6.50;3.60;;;;;;;3.88;70.88;101238.06;4970166;28;20089;-75
2022/02/13 10:23:08;;;;;;;6.30;3.08;;;;;;;3.95;71.14;101238.53;4989151;28;20593;-75
2022/02/13 10:25:35;;;;;;;5.68;3.05;;;;;;;3.90;69.69;101228.44;4987856;28;20070;-75
2022/02/13 10:28:17;;;;;;;5.90;3.00;;;;;;;3.97;71.37;101233.25;4988738;28;20130;-75
2022/02/13 10:30:46;;;;;;;6.90;3.17;;;;;;;4.12;71.42;101228.91;4981405;28;20030;-75
2022/02/13 10:33:23;;;;;;;5.95;3.03;;;;;;;4.25;71.13;101232.41;4981279;28;20062;-75
2022/02/13 10:36:05;;;;;;;8.32;3.47;;;;;;;4.45;70.45;101232.03;4985523;28;20847;-75
2022/02/13 10:38:33;;;;;;;6.82;3.97;;;;;;;4.60;71.04;101230.25;4987828;28;20486;-75
2022/02/13 10:41:20;;;;;;;8.40;3.42;;;;;;;4.70;69.96;101232.28;4979259;28;20035;-75
2022/02/13 10:43:53;;;;;;;8.65;3.33;;;;;;;4.68;68.75;101234.97;4960944;28;20038;-75
2022/02/13 10:46:20;;;;;;;8.20;3.20;;;;;;;4.83;69.97;101222.78;4988156;28;20065;-75
2022/02/13 10:48:47;;;;;;;5.93;3.20;;;;;;;4.96;69.47;101218.44;4973582;28;20551;-75
2022/02/13 10:51:13;;;;;;;4.57;3.00;;;;;;;5.02;68.82;101220.66;4970127;28;20449;-76
2022/02/13 10:53:44;;;;;;;7.88;3.35;;;;;;;5.00;68.28;101206.91;4959785;28;20039;-75
2022/02/13 10:56:09;;;;;;;6.03;3.20;;;;;;;4.95;67.58;101208.97;4990161;28;20129;-74
2022/02/13 10:58:37;;;;;;;7.75;3.15;;;;;;;4.99;68.28;101197.47;4982536;28;20034;-75
2022/02/13 11:01:04;;;;;;;7.10;3.20;;;;;;;4.98;67.06;101197.56;4976350;28;20137;-76
2022/02/13 11:03:32;;;;;;;6.07;3.10;;;;;;;5.01;66.50;101199.94;4986125;28;20034;-75
2022/02/13 11:06:05;;;;;;;6.25;2.83;;;;;;;4.97;66.46;101201.94;4960301;28;20034;-75
2022/02/13 11:08:43;;;;;;;7.20;3.20;;;;;;;5.00;67.96;101199.13;4978324;28;20044;-75
2022/02/13 11:11:10;;;;;;;8.05;3.50;;;;;;;4.90;66.82;101189.41;4972458;28;20042;-75
2022/02/13 11:13:39;;;;;;;8.27;3.47;;;;;;;4.88;66.36;101187.75;4990773;28;20038;-75
2022/02/13 11:16:30;;;;;;;8.52;3.30;;;;;;;4.88;67.00;101185.16;4983382;28;20116;-76
2022/02/13 11:19:13;;;;;;;8.32;3.55;;;;;;;4.84;67.14;101177.63;4988894;28;20042;-76